PILOTS ONLINE: 193    ATC ONLINE: 24

KNKT

Cherry Point MCAS /Cunningham Field/

Location

City Cherry Point
Country  United States
Latitude 34° 54' 3" N
Longitude 76° 52' 50" W
Elevation 29 ft
Type Medium Airport

Map

Weather

METAR
2014/08/29 07:54
KNKT 290754Z 22004KT 10SM CLR 23/21 A3004 RMK AO2 SLP168 T02330206 
TAF
2014/08/29 03:06
TAF KNKT 2903/3003 VRB04KT 9999 FEW200 QNH2992INS 
      TEMPO 2907/2912 00000KT 3200 BR 
      BECMG 2912/2914 04006KT 9999 SCT035 BKN050 QNH3004INS 
     FM292300 09004KT 9999 BKN035 BKN050 QNH3005INS T21/2909Z T29/2917Z

Runways

05L/23R 7553 ft / 200 ft
05R/23L 8188 ft / 196 ft
14L/32R 8984 ft / 200 ft
14R/32L 8399 ft / 200 ft

Outbound flights

Callsign Flying to Pilot ATD/STD ETA Aircraft

Inbound flights

Callsign Flying from Pilot ATD ETA Aircraft